createdAt,value
2018-04-27T00:00:54.200Z,1001.50
2018-04-27T00:01:54.190Z,1001.46
2018-04-27T00:02:54.192Z,1001.45
2018-04-27T00:03:54.187Z,1001.47
2018-04-27T00:04:54.182Z,1001.42
2018-04-27T00:05:54.177Z,1001.43
2018-04-27T00:06:54.176Z,1001.48
2018-04-27T00:07:54.192Z,1001.45
2018-04-27T00:08:55.153Z,1001.51
2018-04-27T00:09:54.161Z,1001.44
2018-04-27T00:10:54.161Z,1001.44
2018-04-27T00:11:54.154Z,1001.42
2018-04-27T00:12:54.152Z,1001.47
2018-04-27T00:13:54.146Z,1001.43
2018-04-27T00:14:54.185Z,1001.44
2018-04-27T00:15:54.138Z,1001.45
2018-04-27T00:16:54.139Z,1001.44
2018-04-27T00:17:54.130Z,1001.48
2018-04-27T00:18:54.130Z,1001.49
2018-04-27T00:19:54.123Z,1001.50
2018-04-27T00:20:54.127Z,1001.51
2018-04-27T00:21:54.117Z,1001.51
2018-04-27T00:22:54.110Z,1001.51
2018-04-27T00:23:54.107Z,1001.48
2018-04-27T00:24:54.102Z,1001.47
2018-04-27T00:25:54.099Z,1001.46
2018-04-27T00:26:54.096Z,1001.47
2018-04-27T00:27:54.101Z,1001.46
2018-04-27T00:28:54.089Z,1001.43
2018-04-27T00:29:54.082Z,1001.41
2018-04-27T00:30:54.086Z,1001.39
2018-04-27T00:31:54.089Z,1001.41
2018-04-27T00:32:54.071Z,1001.41
2018-04-27T00:33:54.068Z,1001.43
2018-04-27T00:34:54.073Z,1001.39
2018-04-27T00:35:54.063Z,1001.40
2018-04-27T00:36:54.055Z,1001.43
2018-04-27T00:37:54.050Z,1001.41
2018-04-27T00:38:54.050Z,1001.37
2018-04-27T00:39:54.048Z,1001.38
2018-04-27T00:40:54.040Z,1001.37
2018-04-27T00:41:54.040Z,1001.37
2018-04-27T00:42:54.031Z,1001.38
2018-04-27T00:43:54.027Z,1001.38
2018-04-27T00:44:54.025Z,1001.35
2018-04-27T00:45:54.031Z,1001.36
2018-04-27T00:46:54.026Z,1001.34
2018-04-27T00:47:54.012Z,1001.33
2018-04-27T00:48:54.023Z,1001.36
2018-04-27T00:49:54.002Z,1001.31
2018-04-27T00:50:54.006Z,1001.32
2018-04-27T00:51:53.997Z,1001.31
2018-04-27T00:52:53.997Z,1001.34
2018-04-27T00:53:53.988Z,1001.33
2018-04-27T00:54:53.988Z,1001.34
2018-04-27T00:55:53.977Z,1001.34
2018-04-27T00:56:53.983Z,1001.31
2018-04-27T00:57:53.972Z,1001.31
2018-04-27T00:58:53.964Z,1001.27
2018-04-27T00:59:53.991Z,1001.26
2018-04-27T01:00:53.957Z,1001.25
2018-04-27T01:01:53.959Z,1001.28
2018-04-27T01:02:53.949Z,1001.28
2018-04-27T01:03:53.945Z,1001.24
2018-04-27T01:04:53.941Z,1001.23
2018-04-27T01:05:53.938Z,1001.25
2018-04-27T01:06:53.944Z,1001.23
2018-04-27T01:07:53.928Z,1001.24
2018-04-27T01:08:53.928Z,1001.24
2018-04-27T01:09:53.922Z,1001.27
2018-04-27T01:10:53.992Z,1001.25
2018-04-27T01:11:53.914Z,1001.22
2018-04-27T01:12:53.911Z,1001.23
2018-04-27T01:13:53.903Z,1001.25
2018-04-27T01:14:53.900Z,1001.23
2018-04-27T01:15:53.906Z,1001.24
2018-04-27T01:16:53.894Z,1001.23
2018-04-27T01:17:53.892Z,1001.23
2018-04-27T01:18:53.882Z,1001.24
2018-04-27T01:19:53.880Z,1001.23
2018-04-27T01:20:53.875Z,1001.24
2018-04-27T01:21:53.874Z,1001.22
2018-04-27T01:22:53.878Z,1001.24
2018-04-27T01:23:53.862Z,1001.25
2018-04-27T01:24:53.861Z,1001.23
2018-04-27T01:25:53.862Z,1001.24
2018-04-27T01:26:53.851Z,1001.23
2018-04-27T01:27:53.844Z,1001.23
2018-04-27T01:28:53.842Z,1001.24
2018-04-27T01:29:53.837Z,1001.23
2018-04-27T01:30:53.833Z,1001.26
2018-04-27T01:31:53.828Z,1001.29
2018-04-27T01:32:53.823Z,1001.28
2018-04-27T01:33:53.817Z,1001.26
2018-04-27T01:34:53.812Z,1001.27
2018-04-27T01:35:53.823Z,1001.27
2018-04-27T01:36:53.806Z,1001.30
2018-04-27T01:37:53.798Z,1001.27
2018-04-27T01:38:53.798Z,1001.28
2018-04-27T01:39:53.790Z,1001.25
2018-04-27T01:40:54.312Z,1001.26
2018-04-27T01:41:53.846Z,1001.25
2018-04-27T01:42:53.785Z,1001.31
2018-04-27T01:43:53.776Z,1001.23
2018-04-27T01:44:53.780Z,1001.26
2018-04-27T01:45:53.762Z,1001.27
2018-04-27T01:46:53.763Z,1001.28
2018-04-27T01:47:53.754Z,1001.26
2018-04-27T01:48:53.751Z,1001.27
2018-04-27T01:49:53.745Z,1001.26
2018-04-27T01:50:53.743Z,1001.27
2018-04-27T01:51:53.738Z,1001.28
2018-04-27T01:52:53.738Z,1001.29
2018-04-27T01:53:53.733Z,1001.32
2018-04-27T01:54:53.725Z,1001.30
2018-04-27T01:55:53.721Z,1001.33
2018-04-27T01:56:53.714Z,1001.29
2018-04-27T01:57:53.708Z,1001.30
2018-04-27T01:58:53.705Z,1001.32
2018-04-27T01:59:53.700Z,1001.27
2018-04-27T02:00:53.695Z,1001.27
2018-04-27T02:01:53.693Z,1001.23
2018-04-27T02:02:53.685Z,1001.24
2018-04-27T02:03:53.680Z,1001.28
2018-04-27T02:04:53.680Z,1001.23
2018-04-27T02:05:53.674Z,1001.25
2018-04-27T02:06:53.674Z,1001.29
2018-04-27T02:07:53.663Z,1001.26
2018-04-27T02:08:53.660Z,1001.28
2018-04-27T02:09:53.655Z,1001.29
2018-04-27T02:10:53.648Z,1001.24
2018-04-27T02:11:53.634Z,1001.25
2018-04-27T02:12:53.643Z,1001.26
2018-04-27T02:13:53.625Z,1001.21
2018-04-27T02:14:53.666Z,1001.22
2018-04-27T02:15:53.621Z,1001.25
2018-04-27T02:16:53.612Z,1001.21
2018-04-27T02:17:53.606Z,1001.18
2018-04-27T02:18:53.608Z,1001.22
2018-04-27T02:19:53.605Z,1001.20
2018-04-27T02:20:53.594Z,1001.20
2018-04-27T02:21:53.588Z,1001.21
2018-04-27T02:22:53.583Z,1001.24
2018-04-27T02:23:53.596Z,1001.26
2018-04-27T02:24:53.576Z,1001.26
2018-04-27T02:25:53.569Z,1001.27
2018-04-27T02:26:53.566Z,1001.24
2018-04-27T02:27:53.568Z,1001.23
2018-04-27T02:28:53.555Z,1001.19
2018-04-27T02:29:53.550Z,1001.23
2018-04-27T02:30:53.551Z,1001.27
2018-04-27T02:31:53.542Z,1001.25
2018-04-27T02:32:53.537Z,1001.26
2018-04-27T02:33:53.535Z,1001.28
2018-04-27T02:34:53.529Z,1001.24
2018-04-27T02:35:53.523Z,1001.19
2018-04-27T02:36:53.518Z,1001.23
2018-04-27T02:37:53.512Z,1001.20
2018-04-27T02:38:53.509Z,1001.14
2018-04-27T02:39:53.510Z,1001.12
2018-04-27T02:40:53.509Z,1001.12
2018-04-27T02:41:53.501Z,1001.11
2018-04-27T02:42:53.488Z,1001.14
2018-04-27T02:43:53.485Z,1001.12
2018-04-27T02:44:53.480Z,1001.16
2018-04-27T02:45:53.477Z,1001.14
2018-04-27T02:46:53.469Z,1001.16
2018-04-27T02:47:53.463Z,1001.14
2018-04-27T02:48:53.459Z,1001.16
2018-04-27T02:49:53.453Z,1001.15
2018-04-27T02:50:53.452Z,1001.13
2018-04-27T02:51:53.446Z,1001.17
2018-04-27T02:52:53.441Z,1001.18
2018-04-27T02:53:53.442Z,1001.18
2018-04-27T02:54:53.431Z,1001.18
2018-04-27T02:55:53.425Z,1001.16
2018-04-27T02:56:53.427Z,1001.16
2018-04-27T02:57:53.416Z,1001.15
2018-04-27T02:58:53.415Z,1001.15
2018-04-27T02:59:53.409Z,1001.10
2018-04-27T03:00:53.420Z,1001.12
2018-04-27T03:01:53.400Z,1001.08
2018-04-27T03:02:53.392Z,1001.10
2018-04-27T03:03:53.392Z,1001.08
2018-04-27T03:04:53.383Z,1001.06
2018-04-27T03:05:53.382Z,1001.05
2018-04-27T03:06:53.376Z,1001.00
2018-04-27T03:07:53.369Z,1001.01
2018-04-27T03:08:53.367Z,1000.99
2018-04-27T03:09:53.356Z,1000.98
2018-04-27T03:10:53.369Z,1001.00
2018-04-27T03:11:53.382Z,1001.00
2018-04-27T03:12:53.445Z,1000.98
2018-04-27T03:13:53.341Z,1000.99
2018-04-27T03:14:53.333Z,1000.98
2018-04-27T03:15:53.351Z,1000.91
2018-04-27T03:16:53.339Z,1000.91
2018-04-27T03:17:53.341Z,1000.97
2018-04-27T03:18:53.331Z,1000.93
2018-04-27T03:19:53.315Z,1000.88
2018-04-27T03:20:53.328Z,1000.91
2018-04-27T03:21:53.308Z,1000.94
2018-04-27T03:22:53.300Z,1000.91
2018-04-27T03:23:53.410Z,1000.93
2018-04-27T03:24:53.346Z,1000.94
2018-04-27T03:25:53.316Z,1000.94
2018-04-27T03:26:53.305Z,1000.94
2018-04-27T03:27:53.296Z,1000.93
2018-04-27T03:28:53.308Z,1000.90
2018-04-27T03:29:53.314Z,1000.91
2018-04-27T03:30:53.268Z,1000.91
2018-04-27T03:31:53.293Z,1000.90
2018-04-27T03:32:53.275Z,1000.91
2018-04-27T03:33:53.318Z,1000.89
2018-04-27T03:34:53.327Z,1000.88
2018-04-27T03:35:53.324Z,1000.88
2018-04-27T03:36:53.278Z,1000.87
2018-04-27T03:37:53.229Z,1000.86
2018-04-27T03:38:53.221Z,1000.90
2018-04-27T03:39:53.269Z,1000.87
2018-04-27T03:40:53.252Z,1000.88
2018-04-27T03:41:53.294Z,1000.86
2018-04-27T03:42:53.277Z,1000.86
2018-04-27T03:43:53.828Z,1000.85
2018-04-27T03:44:53.216Z,1000.87
2018-04-27T03:45:53.230Z,1000.90
2018-04-27T03:46:53.182Z,1000.85
2018-04-27T03:47:53.233Z,1000.90
2018-04-27T03:48:53.210Z,1000.89
2018-04-27T03:49:53.167Z,1000.83
2018-04-27T03:50:53.232Z,1000.87
2018-04-27T03:51:53.231Z,1000.87
2018-04-27T03:52:53.269Z,1000.86
2018-04-27T03:53:53.133Z,1000.86
2018-04-27T03:54:53.148Z,1000.85
2018-04-27T03:55:53.214Z,1000.86
2018-04-27T03:56:53.121Z,1000.85
2018-04-27T03:57:53.133Z,1000.84
2018-04-27T03:58:53.110Z,1000.85
2018-04-27T03:59:53.178Z,1000.83
2018-04-27T04:00:53.103Z,1000.83
2018-04-27T04:01:53.091Z,1000.79
2018-04-27T04:02:53.091Z,1000.82
2018-04-27T04:03:53.082Z,1000.80
2018-04-27T04:04:53.082Z,1000.79
2018-04-27T04:05:53.075Z,1000.78
2018-04-27T04:06:53.066Z,1000.80
2018-04-27T04:07:53.061Z,1000.77
2018-04-27T04:08:53.066Z,1000.77
2018-04-27T04:09:53.048Z,1000.77
2018-04-27T04:10:53.055Z,1000.77
2018-04-27T04:11:53.041Z,1000.74
2018-04-27T04:12:53.037Z,1000.75
2018-04-27T04:13:53.027Z,1000.77
2018-04-27T04:14:53.023Z,1000.74
2018-04-27T04:15:53.018Z,1000.78
2018-04-27T04:16:53.012Z,1000.75
2018-04-27T04:17:53.007Z,1000.76
2018-04-27T04:18:53.003Z,1000.72
2018-04-27T04:19:52.995Z,1000.73
2018-04-27T04:20:52.994Z,1000.77
2018-04-27T04:21:52.985Z,1000.74
2018-04-27T04:22:52.981Z,1000.74
2018-04-27T04:23:52.978Z,1000.74
2018-04-27T04:24:52.972Z,1000.71
2018-04-27T04:25:52.979Z,1000.74
2018-04-27T04:26:52.966Z,1000.76
2018-04-27T04:27:52.961Z,1000.79
2018-04-27T04:28:52.962Z,1000.75
2018-04-27T04:29:52.948Z,1000.78
2018-04-27T04:30:52.947Z,1000.75
2018-04-27T04:31:52.932Z,1000.74
2018-04-27T04:32:52.928Z,1000.78
2018-04-27T04:33:52.925Z,1000.79
2018-04-27T04:34:52.917Z,1000.80
2018-04-27T04:35:52.917Z,1000.81
2018-04-27T04:36:52.912Z,1000.77
2018-04-27T04:37:52.902Z,1000.82
2018-04-27T04:38:52.895Z,1000.80
2018-04-27T04:39:52.897Z,1000.82
2018-04-27T04:40:52.890Z,1000.79
2018-04-27T04:41:52.881Z,1000.80
2018-04-27T04:42:52.876Z,1000.79
2018-04-27T04:43:52.869Z,1000.77
2018-04-27T04:44:52.866Z,1000.75
2018-04-27T04:45:52.860Z,1000.76
2018-04-27T04:46:52.854Z,1000.78
2018-04-27T04:47:52.853Z,1000.73
2018-04-27T04:48:52.854Z,1000.77
2018-04-27T04:49:52.841Z,1000.73
2018-04-27T04:50:52.833Z,1000.73
2018-04-27T04:51:52.833Z,1000.74
2018-04-27T04:52:52.824Z,1000.73
2018-04-27T04:53:52.820Z,1000.72
2018-04-27T04:54:52.814Z,1000.71
2018-04-27T04:55:52.806Z,1000.70
2018-04-27T04:56:52.802Z,1000.74
2018-04-27T04:57:52.797Z,1000.70
2018-04-27T04:58:52.789Z,1000.69
2018-04-27T04:59:52.787Z,1000.70
2018-04-27T05:00:52.778Z,1000.70
2018-04-27T05:01:52.779Z,1000.70
2018-04-27T05:02:52.774Z,1000.73
2018-04-27T05:03:52.770Z,1000.76
2018-04-27T05:04:52.763Z,1000.75
2018-04-27T05:05:52.752Z,1000.78
2018-04-27T05:06:52.757Z,1000.78
2018-04-27T05:07:52.743Z,1000.76
2018-04-27T05:08:52.738Z,1000.80
2018-04-27T05:09:52.732Z,1000.79
2018-04-27T05:10:52.805Z,1000.75
2018-04-27T05:11:52.723Z,1000.75
2018-04-27T05:12:52.733Z,1000.70
2018-04-27T05:13:52.712Z,1000.71
2018-04-27T05:14:52.711Z,1000.75
2018-04-27T05:15:52.977Z,1000.72
2018-04-27T05:16:52.701Z,1000.69
2018-04-27T05:17:52.691Z,1000.71
2018-04-27T05:18:52.687Z,1000.73
2018-04-27T05:19:52.689Z,1000.78
2018-04-27T05:20:52.677Z,1000.73
2018-04-27T05:21:52.676Z,1000.80
2018-04-27T05:22:52.669Z,1000.79
2018-04-27T05:23:52.666Z,1000.79
2018-04-27T05:24:52.658Z,1000.79
2018-04-27T05:25:52.651Z,1000.82
2018-04-27T05:26:52.648Z,1000.80
2018-04-27T05:27:52.649Z,1000.83
2018-04-27T05:28:52.641Z,1000.80
2018-04-27T05:29:52.637Z,1000.82
2018-04-27T05:30:52.635Z,1000.80
2018-04-27T05:31:52.622Z,1000.84
2018-04-27T05:32:52.623Z,1000.84
2018-04-27T05:33:52.613Z,1000.81
2018-04-27T05:34:52.610Z,1000.82
2018-04-27T05:35:52.604Z,1000.77
2018-04-27T05:36:52.605Z,1000.76
2018-04-27T05:37:52.597Z,1000.76
2018-04-27T05:38:52.590Z,1000.79
2018-04-27T05:39:52.592Z,1000.76
2018-04-27T05:40:52.585Z,1000.74
2018-04-27T05:41:52.578Z,1000.76
2018-04-27T05:42:52.598Z,1000.73
2018-04-27T05:43:52.574Z,1000.71
2018-04-27T05:44:52.572Z,1000.67
2018-04-27T05:45:52.567Z,1000.72
2018-04-27T05:46:53.366Z,1000.65
2018-04-27T05:47:52.568Z,1000.69
2018-04-27T05:48:52.618Z,1000.67
2018-04-27T05:49:52.548Z,1000.70
2018-04-27T05:50:52.542Z,1000.72
2018-04-27T05:51:52.543Z,1000.72
2018-04-27T05:52:52.530Z,1000.73
2018-04-27T05:53:52.526Z,1000.71
2018-04-27T05:54:52.523Z,1000.67
2018-04-27T05:55:52.535Z,1000.68
2018-04-27T05:56:52.514Z,1000.65
2018-04-27T05:57:52.519Z,1000.66
2018-04-27T05:58:52.505Z,1000.65
2018-04-27T05:59:52.503Z,1000.66
2018-04-27T06:00:52.507Z,1000.67
2018-04-27T06:01:52.494Z,1000.64
2018-04-27T06:02:52.491Z,1000.70
2018-04-27T06:03:52.485Z,1000.67
2018-04-27T06:04:52.481Z,1000.61
2018-04-27T06:05:52.476Z,1000.58
2018-04-27T06:06:52.478Z,1000.52
2018-04-27T06:07:52.469Z,1000.53
2018-04-27T06:08:52.467Z,1000.57
2018-04-27T06:09:52.460Z,1000.51
2018-04-27T06:10:52.458Z,1000.52
2018-04-27T06:11:52.453Z,1000.49
2018-04-27T06:12:52.451Z,1000.52
2018-04-27T06:13:52.445Z,1000.52
2018-04-27T06:14:52.443Z,1000.47
2018-04-27T06:15:52.438Z,1000.44
2018-04-27T06:16:52.436Z,1000.42
2018-04-27T06:17:52.432Z,1000.42
2018-04-27T06:18:52.428Z,1000.44
2018-04-27T06:19:52.424Z,1000.48
2018-04-27T06:20:52.426Z,1000.43
2018-04-27T06:21:52.416Z,1000.40
2018-04-27T06:22:52.415Z,1000.42
2018-04-27T06:23:52.412Z,1000.38
2018-04-27T06:24:52.408Z,1000.37
2018-04-27T06:25:52.402Z,1000.40
2018-04-27T06:26:52.404Z,1000.39
2018-04-27T06:27:52.396Z,1000.40
2018-04-27T06:28:52.392Z,1000.40
2018-04-27T06:29:52.396Z,1000.41
2018-04-27T06:30:52.394Z,1000.41
2018-04-27T06:31:52.416Z,1000.41
2018-04-27T06:32:52.381Z,1000.40
2018-04-27T06:33:52.381Z,1000.41
2018-04-27T06:34:52.423Z,1000.38
2018-04-27T06:35:52.371Z,1000.38
2018-04-27T06:36:52.373Z,1000.39
2018-04-27T06:37:52.503Z,1000.38
2018-04-27T06:38:52.359Z,1000.42
2018-04-27T06:39:52.356Z,1000.41
2018-04-27T06:40:52.353Z,1000.38
2018-04-27T06:41:52.352Z,1000.38
2018-04-27T06:42:52.349Z,1000.38
2018-04-27T06:43:52.344Z,1000.34
2018-04-27T06:44:52.354Z,1000.33
2018-04-27T06:45:52.342Z,1000.34
2018-04-27T06:46:52.344Z,1000.34
2018-04-27T06:47:52.333Z,1000.35
2018-04-27T06:48:52.333Z,1000.35
2018-04-27T06:49:52.324Z,1000.41
2018-04-27T06:50:52.324Z,1000.43
2018-04-27T06:51:52.326Z,1000.35
2018-04-27T06:52:52.322Z,1000.37
2018-04-27T06:53:52.326Z,1000.36
2018-04-27T06:54:52.315Z,1000.28
2018-04-27T06:55:52.313Z,1000.30
2018-04-27T06:56:52.314Z,1000.30
2018-04-27T06:57:52.302Z,1000.32
2018-04-27T06:58:52.302Z,1000.29
2018-04-27T06:59:52.307Z,1000.30
2018-04-27T07:00:52.303Z,1000.34
2018-04-27T07:01:52.292Z,1000.34
2018-04-27T07:02:52.549Z,1000.35
2018-04-27T07:03:52.324Z,1000.34
2018-04-27T07:04:52.295Z,1000.31
2018-04-27T07:05:52.283Z,1000.33
2018-04-27T07:06:52.487Z,1000.32
2018-04-27T07:07:52.278Z,1000.32
2018-04-27T07:08:52.274Z,1000.30
2018-04-27T07:09:52.273Z,1000.30
2018-04-27T07:10:52.270Z,1000.31
2018-04-27T07:11:52.287Z,1000.31
2018-04-27T07:12:52.267Z,1000.29
2018-04-27T07:13:52.260Z,1000.34
2018-04-27T07:14:52.261Z,1000.29
2018-04-27T07:15:52.257Z,1000.30
2018-04-27T07:16:52.283Z,1000.26
2018-04-27T07:17:52.253Z,1000.30
2018-04-27T07:18:52.526Z,1000.27
2018-04-27T07:19:52.247Z,1000.31
2018-04-27T07:20:52.243Z,1000.24
2018-04-27T07:21:52.240Z,1000.26
2018-04-27T07:22:52.242Z,1000.25
2018-04-27T07:23:52.235Z,1000.22
2018-04-27T07:24:52.240Z,1000.23
2018-04-27T07:25:52.241Z,1000.23
2018-04-27T07:26:52.228Z,1000.22
2018-04-27T07:27:52.225Z,1000.15
2018-04-27T07:28:52.228Z,1000.15
2018-04-27T07:29:52.221Z,1000.17
2018-04-27T07:30:52.239Z,1000.12
2018-04-27T07:31:52.221Z,1000.11
2018-04-27T07:32:52.220Z,1000.09
2018-04-27T07:33:52.274Z,1000.09
2018-04-27T07:34:52.224Z,1000.08
2018-04-27T07:35:52.213Z,1000.04
2018-04-27T07:36:52.210Z,1000.05
2018-04-27T07:37:52.229Z,1000.00
2018-04-27T07:38:52.204Z,1000.02
2018-04-27T07:39:53.238Z,1000.04
2018-04-27T07:40:52.200Z,1000.05
2018-04-27T07:41:52.222Z,1000.01
2018-04-27T07:42:52.205Z,1000.04
2018-04-27T07:43:52.420Z,1000.01
2018-04-27T07:44:52.197Z,1000.01
2018-04-27T07:45:52.189Z,1000.00
2018-04-27T07:46:52.215Z,1000.03
2018-04-27T07:47:52.187Z,1000.03
2018-04-27T07:48:52.186Z,1000.02
2018-04-27T07:49:52.932Z,1000.03
2018-04-27T07:50:52.181Z,1000.02
2018-04-27T07:51:52.180Z,1000.03
2018-04-27T07:52:52.185Z,1000.01
2018-04-27T07:53:52.183Z,999.99
2018-04-27T07:54:52.174Z,999.97
2018-04-27T07:55:52.173Z,999.95
2018-04-27T07:56:52.172Z,999.97
2018-04-27T07:57:52.171Z,999.92
2018-04-27T07:58:52.187Z,999.94
2018-04-27T07:59:52.292Z,999.91
2018-04-27T08:00:52.256Z,999.91
2018-04-27T08:01:52.440Z,999.93
2018-04-27T08:02:52.160Z,999.92
2018-04-27T08:03:52.160Z,999.89
2018-04-27T08:04:53.060Z,999.91
2018-04-27T08:05:52.154Z,999.90
2018-04-27T08:06:52.158Z,999.92
2018-04-27T08:07:53.121Z,999.88
2018-04-27T08:08:52.157Z,999.90
2018-04-27T08:09:52.148Z,999.87
2018-04-27T08:10:52.153Z,999.89
2018-04-27T08:11:52.147Z,999.87
2018-04-27T08:12:52.962Z,999.86
2018-04-27T08:13:52.143Z,999.82
2018-04-27T08:14:52.147Z,999.84
2018-04-27T08:15:52.147Z,999.85
2018-04-27T08:16:52.139Z,999.82
2018-04-27T08:17:52.136Z,999.82
2018-04-27T08:18:52.137Z,999.81
2018-04-27T08:19:52.136Z,999.79
2018-04-27T08:20:52.133Z,999.77
2018-04-27T08:21:52.132Z,999.77
2018-04-27T08:22:52.129Z,999.74
2018-04-27T08:23:52.149Z,999.76
2018-04-27T08:24:52.133Z,999.76
2018-04-27T08:25:52.134Z,999.75
2018-04-27T08:26:52.131Z,999.78
2018-04-27T08:27:52.128Z,999.76
2018-04-27T08:28:52.123Z,999.77
2018-04-27T08:29:52.122Z,999.76
2018-04-27T08:30:52.120Z,999.76
2018-04-27T08:31:52.119Z,999.76
2018-04-27T08:32:52.119Z,999.74
2018-04-27T08:33:52.117Z,999.76
2018-04-27T08:34:52.120Z,999.77
2018-04-27T08:35:52.122Z,999.77
2018-04-27T08:36:52.117Z,999.75
2018-04-27T08:37:52.116Z,999.71
2018-04-27T08:38:52.120Z,999.68
2018-04-27T08:39:52.112Z,999.67
2018-04-27T08:40:52.119Z,999.63
2018-04-27T08:41:52.110Z,999.64
2018-04-27T08:42:52.322Z,999.61
2018-04-27T08:43:52.180Z,999.64
2018-04-27T08:44:52.109Z,999.61
2018-04-27T08:45:52.109Z,999.60
2018-04-27T08:46:52.113Z,999.64
2018-04-27T08:47:52.112Z,999.62
2018-04-27T08:48:52.107Z,999.54
2018-04-27T08:49:52.180Z,999.56
2018-04-27T08:50:52.109Z,999.56
2018-04-27T08:51:52.106Z,999.51
2018-04-27T08:52:52.108Z,999.47
2018-04-27T08:53:52.108Z,999.48
2018-04-27T08:54:52.105Z,999.51
2018-04-27T08:55:52.116Z,999.51
2018-04-27T08:56:52.111Z,999.46
2018-04-27T08:57:52.108Z,999.49
2018-04-27T08:58:52.104Z,999.44
2018-04-27T08:59:52.106Z,999.43
2018-04-27T09:00:52.108Z,999.41
2018-04-27T09:01:52.112Z,999.38
2018-04-27T09:02:52.112Z,999.37
2018-04-27T09:03:52.160Z,999.37
2018-04-27T09:04:52.137Z,999.37
2018-04-27T09:05:52.120Z,999.31
2018-04-27T09:06:52.244Z,999.33
2018-04-27T09:07:52.127Z,999.28
2018-04-27T09:08:52.135Z,999.28
2018-04-27T09:09:52.140Z,999.27
2018-04-27T09:10:52.145Z,999.25
2018-04-27T09:11:52.150Z,999.19
2018-04-27T09:12:52.153Z,999.21
2018-04-27T09:13:52.159Z,999.17
2018-04-27T09:14:52.164Z,999.15
2018-04-27T09:15:52.236Z,999.07
2018-04-27T09:16:52.178Z,999.08
2018-04-27T09:17:52.185Z,999.11
2018-04-27T09:18:52.193Z,999.06
2018-04-27T09:19:52.202Z,999.02
2018-04-27T09:20:52.201Z,998.94
2018-04-27T09:21:52.209Z,998.98
2018-04-27T09:22:52.209Z,998.98
2018-04-27T09:23:52.223Z,998.95
2018-04-27T09:24:52.222Z,998.93
2018-04-27T09:25:52.224Z,998.92
2018-04-27T09:26:52.285Z,998.90
2018-04-27T09:27:52.241Z,998.92
2018-04-27T09:28:52.237Z,998.95
2018-04-27T09:29:52.268Z,998.91
2018-04-27T09:30:52.247Z,998.88
2018-04-27T09:31:52.250Z,998.90
2018-04-27T09:32:52.259Z,998.93
2018-04-27T09:33:52.262Z,998.93
2018-04-27T09:34:52.259Z,998.90
2018-04-27T09:35:52.262Z,998.93
2018-04-27T09:36:52.269Z,998.92
2018-04-27T09:37:52.268Z,998.89
2018-04-27T09:38:52.292Z,998.90
2018-04-27T09:39:52.274Z,998.86
2018-04-27T09:40:52.278Z,998.81
2018-04-27T09:41:52.302Z,998.78
2018-04-27T09:42:52.284Z,998.82
2018-04-27T09:43:52.285Z,998.83
2018-04-27T09:44:52.286Z,998.81
2018-04-27T09:45:52.288Z,998.84
2018-04-27T09:46:52.292Z,998.81
2018-04-27T09:47:52.295Z,998.80
2018-04-27T09:48:52.298Z,998.82
2018-04-27T09:49:52.297Z,998.80
2018-04-27T09:50:52.300Z,998.76
2018-04-27T09:51:52.307Z,998.73
2018-04-27T09:52:52.557Z,998.69
2018-04-27T09:53:52.312Z,998.69
2018-04-27T09:54:52.311Z,998.67
2018-04-27T09:55:52.315Z,998.58
2018-04-27T09:56:52.332Z,998.61
2018-04-27T09:57:52.326Z,998.58
2018-04-27T09:58:52.334Z,998.53
2018-04-27T09:59:52.484Z,998.50
2018-04-27T10:00:52.337Z,998.46
2018-04-27T10:01:52.330Z,998.45
2018-04-27T10:02:52.326Z,998.41
2018-04-27T10:03:52.339Z,998.42
2018-04-27T10:04:52.338Z,998.41
2018-04-27T10:05:52.335Z,998.36
2018-04-27T10:06:52.345Z,998.33
2018-04-27T10:07:52.340Z,998.36
2018-04-27T10:08:52.348Z,998.34
2018-04-27T10:09:52.357Z,998.30
2018-04-27T10:10:52.346Z,998.28
2018-04-27T10:11:52.350Z,998.27
2018-04-27T10:12:52.352Z,998.23
2018-04-27T10:13:52.355Z,998.24
2018-04-27T10:14:52.370Z,998.23
2018-04-27T10:15:52.360Z,998.22
2018-04-27T10:16:52.362Z,998.20
2018-04-27T10:17:52.379Z,998.19
2018-04-27T10:18:52.367Z,998.15
2018-04-27T10:19:52.392Z,998.12
2018-04-27T10:20:52.374Z,998.08
2018-04-27T10:21:52.376Z,998.06
2018-04-27T10:22:52.378Z,998.10
2018-04-27T10:23:52.941Z,998.07
2018-04-27T10:24:52.397Z,998.05
2018-04-27T10:25:52.399Z,997.99
2018-04-27T10:26:52.406Z,997.98
2018-04-27T10:27:52.401Z,997.99
2018-04-27T10:28:52.399Z,997.94
2018-04-27T10:29:52.409Z,997.95
2018-04-27T10:30:52.486Z,997.93
2018-04-27T10:31:52.413Z,997.94
2018-04-27T10:32:52.427Z,997.94
2018-04-27T10:33:52.410Z,997.94
2018-04-27T10:34:52.425Z,997.96
2018-04-27T10:35:52.431Z,997.92
2018-04-27T10:36:52.424Z,997.99
2018-04-27T10:37:52.429Z,997.87
2018-04-27T10:38:52.508Z,997.89
2018-04-27T10:39:52.442Z,997.84
2018-04-27T10:40:52.439Z,997.83
2018-04-27T10:41:52.442Z,997.74
2018-04-27T10:42:52.458Z,997.78
2018-04-27T10:43:52.453Z,997.75
2018-04-27T10:44:52.458Z,997.72
2018-04-27T10:45:52.463Z,997.72
2018-04-27T10:46:52.470Z,997.67
2018-04-27T10:47:52.475Z,997.65
2018-04-27T10:48:52.492Z,997.65
2018-04-27T10:49:52.493Z,997.65
2018-04-27T10:50:52.499Z,997.60
2018-04-27T10:51:52.503Z,997.58
2018-04-27T10:52:52.517Z,997.57
2018-04-27T10:53:52.511Z,997.61
2018-04-27T10:54:53.313Z,997.63
2018-04-27T10:55:52.526Z,997.55
2018-04-27T10:56:52.533Z,997.55
2018-04-27T10:57:52.543Z,997.54
2018-04-27T10:58:52.545Z,997.46
2018-04-27T10:59:52.556Z,997.44
2018-04-27T11:00:52.561Z,997.43
2018-04-27T11:01:52.570Z,997.43
2018-04-27T11:02:52.573Z,997.38
2018-04-27T11:03:52.578Z,997.35
2018-04-27T11:04:52.584Z,997.33
2018-04-27T11:05:52.598Z,997.35
2018-04-27T11:06:52.599Z,997.34
2018-04-27T11:07:52.604Z,997.30
2018-04-27T11:08:52.724Z,997.29
2018-04-27T11:09:52.640Z,997.22
2018-04-27T11:10:52.734Z,997.20
2018-04-27T11:11:52.629Z,997.16
2018-04-27T11:12:52.651Z,997.15
2018-04-27T11:13:52.639Z,997.12
2018-04-27T11:14:52.648Z,997.12
2018-04-27T11:15:52.654Z,997.09
2018-04-27T11:16:52.990Z,997.09
2018-04-27T11:17:52.662Z,997.07
2018-04-27T11:18:52.671Z,997.04
2018-04-27T11:19:52.677Z,997.06
2018-04-27T11:20:52.678Z,997.07
2018-04-27T11:21:52.689Z,997.08
2018-04-27T11:22:52.690Z,997.04
2018-04-27T11:23:52.695Z,997.05
2018-04-27T11:24:52.700Z,997.03
2018-04-27T11:25:53.698Z,996.96
2018-04-27T11:26:52.707Z,996.97
2018-04-27T11:27:52.713Z,996.96
2018-04-27T11:28:52.719Z,996.91
2018-04-27T11:29:52.736Z,996.90
2018-04-27T11:30:52.727Z,996.91
2018-04-27T11:31:52.734Z,996.92
2018-04-27T11:32:52.739Z,996.93
2018-04-27T11:33:52.743Z,996.92
2018-04-27T11:34:52.748Z,996.91
2018-04-27T11:35:52.760Z,996.90
2018-04-27T11:36:52.757Z,996.91
2018-04-27T11:37:52.767Z,996.91
2018-04-27T11:38:52.769Z,996.89
2018-04-27T11:39:52.771Z,996.88
2018-04-27T11:40:52.774Z,996.86
2018-04-27T11:41:52.782Z,996.90
2018-04-27T11:42:52.787Z,996.83
2018-04-27T11:43:52.813Z,996.84
2018-04-27T11:44:52.798Z,996.83
2018-04-27T11:45:52.802Z,996.82
2018-04-27T11:46:52.814Z,996.78
2018-04-27T11:47:52.815Z,996.76
2018-04-27T11:48:52.811Z,996.82
2018-04-27T11:49:52.817Z,996.83
2018-04-27T11:50:52.820Z,996.76
2018-04-27T11:51:52.826Z,996.73
2018-04-27T11:52:52.829Z,996.73
2018-04-27T11:53:52.836Z,996.71
2018-04-27T11:54:52.836Z,996.69
2018-04-27T11:55:52.844Z,996.74
2018-04-27T11:56:53.055Z,996.71
2018-04-27T11:57:52.854Z,996.69
2018-04-27T11:58:52.867Z,996.64
2018-04-27T11:59:52.915Z,996.66
2018-04-27T12:00:52.864Z,996.60
2018-04-27T12:01:52.866Z,996.53
2018-04-27T12:02:52.873Z,996.60
2018-04-27T12:03:52.876Z,996.64
2018-04-27T12:04:52.880Z,996.56
2018-04-27T12:05:52.880Z,996.58
2018-04-27T12:06:52.885Z,996.60
2018-04-27T12:07:52.889Z,996.58
2018-04-27T12:08:52.895Z,996.54
2018-04-27T12:09:52.905Z,996.51
2018-04-27T12:10:52.901Z,996.49
2018-04-27T12:11:52.907Z,996.46
2018-04-27T12:12:52.914Z,996.43
2018-04-27T12:13:52.915Z,996.42